sensor_id;sensor_type;location;lat;lon;timestamp;P1;durP1;ratioP1;P2;durP2;ratioP2
16593;SDS011;8410;52.532;13.336;2023-07-28T00:01:51;3.77;;;3.37;;
16593;SDS011;8410;52.532;13.336;2023-07-28T00:04:19;12.43;;;11.37;;
16593;SDS011;8410;52.532;13.336;2023-07-28T00:06:46;13.00;;;11.80;;
16593;SDS011;8410;52.532;13.336;2023-07-28T00:09:14;15.90;;;14.48;;
16593;SDS011;8410;52.532;13.336;2023-07-28T00:11:41;11.67;;;10.63;;
16593;SDS011;8410;52.532;13.336;2023-07-28T00:14:10;12.73;;;11.53;;
16593;SDS011;8410;52.532;13.336;2023-07-28T00:16:38;15.60;;;14.23;;
16593;SDS011;8410;52.532;13.336;2023-07-28T00:19:05;5.17;;;3.50;;
16593;SDS011;8410;52.532;13.336;2023-07-28T00:21:33;8.33;;;7.63;;
16593;SDS011;8410;52.532;13.336;2023-07-28T00:24:00;10.60;;;9.70;;
16593;SDS011;8410;52.532;13.336;2023-07-28T00:26:28;16.30;;;14.90;;
16593;SDS011;8410;52.532;13.336;2023-07-28T00:28:55;18.57;;;16.77;;
16593;SDS011;8410;52.532;13.336;2023-07-28T00:31:25;10.85;;;4.15;;
16593;SDS011;8410;52.532;13.336;2023-07-28T00:33:53;11.17;;;10.27;;
16593;SDS011;8410;52.532;13.336;2023-07-28T00:36:20;3.30;;;2.97;;
16593;SDS011;8410;52.532;13.336;2023-07-28T00:38:48;13.77;;;12.50;;
16593;SDS011;8410;52.532;13.336;2023-07-28T00:41:15;9.53;;;8.70;;
16593;SDS011;8410;52.532;13.336;2023-07-28T00:43:43;21.50;;;19.57;;
16593;SDS011;8410;52.532;13.336;2023-07-28T00:46:11;7.80;;;7.20;;
16593;SDS011;8410;52.532;13.336;2023-07-28T00:48:41;7.33;;;6.73;;
16593;SDS011;8410;52.532;13.336;2023-07-28T00:51:09;8.80;;;8.00;;
16593;SDS011;8410;52.532;13.336;2023-07-28T00:53:36;5.57;;;4.10;;
16593;SDS011;8410;52.532;13.336;2023-07-28T00:56:04;5.60;;;4.23;;
16593;SDS011;8410;52.532;13.336;2023-07-28T00:58:33;6.70;;;6.10;;
16593;SDS011;8410;52.532;13.336;2023-07-28T01:01:02;16.42;;;15.02;;
16593;SDS011;8410;52.532;13.336;2023-07-28T01:03:29;16.07;;;14.60;;
16593;SDS011;8410;52.532;13.336;2023-07-28T01:06:02;14.10;;;12.75;;
16593;SDS011;8410;52.532;13.336;2023-07-28T01:08:42;9.33;;;8.43;;
16593;SDS011;8410;52.532;13.336;2023-07-28T01:11:16;9.83;;;8.93;;
16593;SDS011;8410;52.532;13.336;2023-07-28T01:13:44;8.70;;;7.80;;
16593;SDS011;8410;52.532;13.336;2023-07-28T01:16:12;4.80;;;4.30;;
16593;SDS011;8410;52.532;13.336;2023-07-28T01:18:40;3.25;;;2.95;;
16593;SDS011;8410;52.532;13.336;2023-07-28T01:21:09;6.25;;;5.72;;
16593;SDS011;8410;52.532;13.336;2023-07-28T01:23:44;3.47;;;2.60;;
16593;SDS011;8410;52.532;13.336;2023-07-28T01:26:26;2.70;;;2.50;;
16593;SDS011;8410;52.532;13.336;2023-07-28T01:28:59;3.20;;;2.90;;
16593;SDS011;8410;52.532;13.336;2023-07-28T01:31:27;4.50;;;2.30;;
16593;SDS011;8410;52.532;13.336;2023-07-28T01:33:55;3.40;;;2.57;;
16593;SDS011;8410;52.532;13.336;2023-07-28T01:36:23;3.10;;;2.87;;
16593;SDS011;8410;52.532;13.336;2023-07-28T01:38:50;5.13;;;3.30;;
16593;SDS011;8410;52.532;13.336;2023-07-28T01:41:18;5.20;;;4.00;;
16593;SDS011;8410;52.532;13.336;2023-07-28T01:43:47;6.50;;;3.33;;
16593;SDS011;8410;52.532;13.336;2023-07-28T01:46:14;4.78;;;2.60;;
16593;SDS011;8410;52.532;13.336;2023-07-28T01:48:42;5.17;;;3.27;;
16593;SDS011;8410;52.532;13.336;2023-07-28T01:51:09;3.47;;;3.17;;
16593;SDS011;8410;52.532;13.336;2023-07-28T01:53:37;3.30;;;3.00;;
16593;SDS011;8410;52.532;13.336;2023-07-28T01:56:04;3.90;;;3.00;;
16593;SDS011;8410;52.532;13.336;2023-07-28T01:58:32;4.30;;;3.90;;
16593;SDS011;8410;52.532;13.336;2023-07-28T02:01:01;4.13;;;3.73;;
16593;SDS011;8410;52.532;13.336;2023-07-28T02:03:28;3.77;;;3.40;;
16593;SDS011;8410;52.532;13.336;2023-07-28T02:05:56;5.03;;;4.40;;
16593;SDS011;8410;52.532;13.336;2023-07-28T02:08:23;4.77;;;3.70;;
16593;SDS011;8410;52.532;13.336;2023-07-28T02:10:52;3.87;;;3.57;;
16593;SDS011;8410;52.532;13.336;2023-07-28T02:13:20;4.10;;;3.80;;
16593;SDS011;8410;52.532;13.336;2023-07-28T02:15:47;6.17;;;4.87;;
16593;SDS011;8410;52.532;13.336;2023-07-28T02:18:16;6.63;;;6.10;;
16593;SDS011;8410;52.532;13.336;2023-07-28T02:20:44;5.38;;;4.88;;
16593;SDS011;8410;52.532;13.336;2023-07-28T02:23:11;4.83;;;4.40;;
16593;SDS011;8410;52.532;13.336;2023-07-28T02:25:40;5.43;;;4.87;;
16593;SDS011;8410;52.532;13.336;2023-07-28T02:28:08;13.43;;;12.13;;
16593;SDS011;8410;52.532;13.336;2023-07-28T02:30:37;11.77;;;9.90;;
16593;SDS011;8410;52.532;13.336;2023-07-28T02:33:05;7.27;;;6.37;;
16593;SDS011;8410;52.532;13.336;2023-07-28T02:35:34;5.33;;;4.83;;
16593;SDS011;8410;52.532;13.336;2023-07-28T02:38:02;5.67;;;5.03;;
16593;SDS011;8410;52.532;13.336;2023-07-28T02:40:31;6.82;;;5.32;;
16593;SDS011;8410;52.532;13.336;2023-07-28T02:42:59;5.40;;;4.87;;
16593;SDS011;8410;52.532;13.336;2023-07-28T02:45:26;5.73;;;5.27;;
16593;SDS011;8410;52.532;13.336;2023-07-28T02:47:54;6.97;;;6.37;;
16593;SDS011;8410;52.532;13.336;2023-07-28T02:50:22;6.90;;;6.20;;
16593;SDS011;8410;52.532;13.336;2023-07-28T02:52:51;5.23;;;4.73;;
16593;SDS011;8410;52.532;13.336;2023-07-28T02:55:18;7.00;;;6.30;;
16593;SDS011;8410;52.532;13.336;2023-07-28T02:57:46;5.90;;;5.30;;
16593;SDS011;8410;52.532;13.336;2023-07-28T03:00:13;6.93;;;6.03;;
16593;SDS011;8410;52.532;13.336;2023-07-28T03:02:41;6.30;;;5.87;;
16593;SDS011;8410;52.532;13.336;2023-07-28T03:05:08;6.77;;;6.27;;
16593;SDS011;8410;52.532;13.336;2023-07-28T03:07:36;6.93;;;6.17;;
16593;SDS011;8410;52.532;13.336;2023-07-28T03:10:05;7.50;;;6.80;;
16593;SDS011;8410;52.532;13.336;2023-07-28T03:12:33;7.55;;;6.85;;
16593;SDS011;8410;52.532;13.336;2023-07-28T03:15:01;7.33;;;6.03;;
16593;SDS011;8410;52.532;13.336;2023-07-28T03:17:28;7.27;;;6.70;;
16593;SDS011;8410;52.532;13.336;2023-07-28T03:19:56;6.40;;;5.83;;
16593;SDS011;8410;52.532;13.336;2023-07-28T03:22:23;6.90;;;6.30;;
16593;SDS011;8410;52.532;13.336;2023-07-28T03:24:51;6.85;;;6.13;;
16593;SDS011;8410;52.532;13.336;2023-07-28T03:27:20;7.17;;;6.17;;
16593;SDS011;8410;52.532;13.336;2023-07-28T03:29:47;6.40;;;5.90;;
16593;SDS011;8410;52.532;13.336;2023-07-28T03:32:15;7.23;;;6.47;;
16593;SDS011;8410;52.532;13.336;2023-07-28T03:34:42;6.32;;;5.72;;
16593;SDS011;8410;52.532;13.336;2023-07-28T03:37:10;6.53;;;5.90;;
16593;SDS011;8410;52.532;13.336;2023-07-28T03:39:37;7.07;;;6.47;;
16593;SDS011;8410;52.532;13.336;2023-07-28T03:42:05;6.83;;;6.30;;
16593;SDS011;8410;52.532;13.336;2023-07-28T03:44:34;7.97;;;6.78;;
16593;SDS011;8410;52.532;13.336;2023-07-28T03:47:04;7.63;;;6.83;;
16593;SDS011;8410;52.532;13.336;2023-07-28T03:49:32;7.73;;;6.63;;
16593;SDS011;8410;52.532;13.336;2023-07-28T03:51:59;7.27;;;6.50;;
16593;SDS011;8410;52.532;13.336;2023-07-28T03:54:27;7.30;;;6.60;;
16593;SDS011;8410;52.532;13.336;2023-07-28T03:56:54;7.40;;;6.47;;
16593;SDS011;8410;52.532;13.336;2023-07-28T03:59:22;8.67;;;6.73;;
16593;SDS011;8410;52.532;13.336;2023-07-28T04:01:51;6.87;;;6.27;;
16593;SDS011;8410;52.532;13.336;2023-07-28T04:04:19;8.23;;;7.10;;
16593;SDS011;8410;52.532;13.336;2023-07-28T04:06:47;8.10;;;7.40;;
16593;SDS011;8410;52.532;13.336;2023-07-28T04:09:16;7.83;;;7.13;;
16593;SDS011;8410;52.532;13.336;2023-07-28T04:11:44;7.63;;;6.70;;
16593;SDS011;8410;52.532;13.336;2023-07-28T04:14:11;7.87;;;7.10;;
16593;SDS011;8410;52.532;13.336;2023-07-28T04:16:40;7.28;;;6.57;;
16593;SDS011;8410;52.532;13.336;2023-07-28T04:19:09;7.93;;;7.28;;
16593;SDS011;8410;52.532;13.336;2023-07-28T04:21:37;7.72;;;7.00;;
16593;SDS011;8410;52.532;13.336;2023-07-28T04:24:07;7.73;;;6.57;;
16593;SDS011;8410;52.532;13.336;2023-07-28T04:26:35;7.90;;;7.20;;
16593;SDS011;8410;52.532;13.336;2023-07-28T04:29:03;7.10;;;6.50;;
16593;SDS011;8410;52.532;13.336;2023-07-28T04:31:30;7.13;;;6.55;;
16593;SDS011;8410;52.532;13.336;2023-07-28T04:33:58;6.90;;;6.30;;
16593;SDS011;8410;52.532;13.336;2023-07-28T04:36:28;8.27;;;7.57;;
16593;SDS011;8410;52.532;13.336;2023-07-28T04:38:56;7.47;;;6.87;;
16593;SDS011;8410;52.532;13.336;2023-07-28T04:41:23;7.97;;;7.27;;
16593;SDS011;8410;52.532;13.336;2023-07-28T04:43:51;7.28;;;6.68;;
16593;SDS011;8410;52.532;13.336;2023-07-28T04:46:18;8.17;;;7.37;;
16593;SDS011;8410;52.532;13.336;2023-07-28T04:48:46;7.63;;;6.90;;
16593;SDS011;8410;52.532;13.336;2023-07-28T04:51:14;8.07;;;7.37;;
16593;SDS011;8410;52.532;13.336;2023-07-28T04:53:43;8.50;;;7.70;;
16593;SDS011;8410;52.532;13.336;2023-07-28T04:56:10;8.70;;;7.83;;
16593;SDS011;8410;52.532;13.336;2023-07-28T04:58:38;9.20;;;8.17;;
16593;SDS011;8410;52.532;13.336;2023-07-28T05:01:05;8.82;;;7.90;;
16593;SDS011;8410;52.532;13.336;2023-07-28T05:03:35;8.43;;;7.73;;
16593;SDS011;8410;52.532;13.336;2023-07-28T05:06:02;8.60;;;7.90;;
16593;SDS011;8410;52.532;13.336;2023-07-28T05:08:30;8.23;;;7.43;;
16593;SDS011;8410;52.532;13.336;2023-07-28T05:10:59;7.53;;;6.90;;
16593;SDS011;8410;52.532;13.336;2023-07-28T05:13:26;8.07;;;7.43;;
16593;SDS011;8410;52.532;13.336;2023-07-28T05:15:54;8.60;;;7.87;;
16593;SDS011;8410;52.532;13.336;2023-07-28T05:18:21;7.88;;;7.18;;
16593;SDS011;8410;52.532;13.336;2023-07-28T05:20:49;9.55;;;7.53;;
16593;SDS011;8410;52.532;13.336;2023-07-28T05:23:16;8.45;;;7.63;;
16593;SDS011;8410;52.532;13.336;2023-07-28T05:25:44;8.43;;;7.73;;
16593;SDS011;8410;52.532;13.336;2023-07-28T05:28:13;8.10;;;7.28;;
16593;SDS011;8410;52.532;13.336;2023-07-28T05:30:41;7.90;;;7.20;;
16593;SDS011;8410;52.532;13.336;2023-07-28T05:33:08;8.05;;;7.45;;
16593;SDS011;8410;52.532;13.336;2023-07-28T05:35:36;7.95;;;7.28;;
16593;SDS011;8410;52.532;13.336;2023-07-28T05:38:03;7.40;;;6.82;;
16593;SDS011;8410;52.532;13.336;2023-07-28T05:40:31;8.02;;;7.32;;
16593;SDS011;8410;52.532;13.336;2023-07-28T05:42:58;8.10;;;6.97;;
16593;SDS011;8410;52.532;13.336;2023-07-28T05:45:27;7.53;;;6.90;;
16593;SDS011;8410;52.532;13.336;2023-07-28T05:47:54;8.18;;;7.43;;
16593;SDS011;8410;52.532;13.336;2023-07-28T05:50:22;7.80;;;7.20;;
16593;SDS011;8410;52.532;13.336;2023-07-28T05:52:49;7.30;;;6.70;;
16593;SDS011;8410;52.532;13.336;2023-07-28T05:55:17;7.32;;;6.72;;
16593;SDS011;8410;52.532;13.336;2023-07-28T05:57:44;7.07;;;6.53;;
16593;SDS011;8410;52.532;13.336;2023-07-28T06:00:12;7.13;;;6.45;;
16593;SDS011;8410;52.532;13.336;2023-07-28T06:02:41;7.20;;;6.60;;
16593;SDS011;8410;52.532;13.336;2023-07-28T06:05:10;7.30;;;6.80;;
16593;SDS011;8410;52.532;13.336;2023-07-28T06:07:37;7.82;;;7.03;;
16593;SDS011;8410;52.532;13.336;2023-07-28T06:10:06;7.57;;;6.97;;
16593;SDS011;8410;52.532;13.336;2023-07-28T06:12:34;7.53;;;6.80;;
16593;SDS011;8410;52.532;13.336;2023-07-28T06:15:02;7.40;;;6.80;;
16593;SDS011;8410;52.532;13.336;2023-07-28T06:17:31;7.40;;;6.90;;
16593;SDS011;8410;52.532;13.336;2023-07-28T06:20:00;6.97;;;6.47;;
16593;SDS011;8410;52.532;13.336;2023-07-28T06:22:28;6.70;;;6.20;;
16593;SDS011;8410;52.532;13.336;2023-07-28T06:24:55;7.15;;;6.63;;
16593;SDS011;8410;52.532;13.336;2023-07-28T06:27:23;7.13;;;6.50;;
16593;SDS011;8410;52.532;13.336;2023-07-28T06:29:50;6.43;;;5.93;;
16593;SDS011;8410;52.532;13.336;2023-07-28T06:32:18;7.55;;;6.95;;
16593;SDS011;8410;52.532;13.336;2023-07-28T06:34:46;6.77;;;6.27;;
16593;SDS011;8410;52.532;13.336;2023-07-28T06:37:15;6.93;;;6.27;;
16593;SDS011;8410;52.532;13.336;2023-07-28T06:39:43;7.18;;;6.60;;
16593;SDS011;8410;52.532;13.336;2023-07-28T06:42:11;6.95;;;6.32;;
16593;SDS011;8410;52.532;13.336;2023-07-28T06:44:38;7.18;;;6.45;;
16593;SDS011;8410;52.532;13.336;2023-07-28T06:47:06;6.50;;;5.85;;
16593;SDS011;8410;52.532;13.336;2023-07-28T06:49:33;6.80;;;5.35;;
16593;SDS011;8410;52.532;13.336;2023-07-28T06:52:01;6.38;;;5.88;;
16593;SDS011;8410;52.532;13.336;2023-07-28T06:54:29;5.47;;;5.03;;
16593;SDS011;8410;52.532;13.336;2023-07-28T06:56:57;6.35;;;5.20;;
16593;SDS011;8410;52.532;13.336;2023-07-28T06:59:25;7.13;;;5.93;;
16593;SDS011;8410;52.532;13.336;2023-07-28T07:01:52;5.18;;;4.70;;
16593;SDS011;8410;52.532;13.336;2023-07-28T07:04:20;4.75;;;4.32;;
16593;SDS011;8410;52.532;13.336;2023-07-28T07:06:48;5.10;;;4.70;;
16593;SDS011;8410;52.532;13.336;2023-07-28T07:09:16;5.65;;;5.03;;
16593;SDS011;8410;52.532;13.336;2023-07-28T07:11:44;5.32;;;4.90;;
16593;SDS011;8410;52.532;13.336;2023-07-28T07:14:12;4.70;;;4.30;;
16593;SDS011;8410;52.532;13.336;2023-07-28T07:16:40;5.85;;;4.53;;
16593;SDS011;8410;52.532;13.336;2023-07-28T07:19:08;4.70;;;4.35;;
16593;SDS011;8410;52.532;13.336;2023-07-28T07:21:35;4.93;;;4.53;;
16593;SDS011;8410;52.532;13.336;2023-07-28T07:24:04;5.30;;;3.63;;
16593;SDS011;8410;52.532;13.336;2023-07-28T07:26:31;4.45;;;3.90;;
16593;SDS011;8410;52.532;13.336;2023-07-28T07:29:00;4.20;;;3.90;;
16593;SDS011;8410;52.532;13.336;2023-07-28T07:31:29;4.10;;;3.80;;
16593;SDS011;8410;52.532;13.336;2023-07-28T07:33:56;3.65;;;3.45;;
16593;SDS011;8410;52.532;13.336;2023-07-28T07:36:24;3.22;;;3.03;;
16593;SDS011;8410;52.532;13.336;2023-07-28T07:38:51;3.13;;;2.92;;
16593;SDS011;8410;52.532;13.336;2023-07-28T07:41:20;3.17;;;2.97;;
16593;SDS011;8410;52.532;13.336;2023-07-28T07:43:49;4.10;;;2.80;;
16593;SDS011;8410;52.532;13.336;2023-07-28T07:46:20;4.35;;;3.30;;
16593;SDS011;8410;52.532;13.336;2023-07-28T07:48:48;3.08;;;2.40;;
16593;SDS011;8410;52.532;13.336;2023-07-28T07:51:16;3.25;;;2.25;;
16593;SDS011;8410;52.532;13.336;2023-07-28T07:53:44;3.30;;;2.75;;
16593;SDS011;8410;52.532;13.336;2023-07-28T07:56:12;3.08;;;2.85;;
16593;SDS011;8410;52.532;13.336;2023-07-28T07:58:40;2.95;;;2.40;;
16593;SDS011;8410;52.532;13.336;2023-07-28T08:01:07;2.22;;;2.13;;
16593;SDS011;8410;52.532;13.336;2023-07-28T08:03:36;1.80;;;1.70;;
16593;SDS011;8410;52.532;13.336;2023-07-28T08:06:04;2.10;;;1.90;;
16593;SDS011;8410;52.532;13.336;2023-07-28T08:08:31;1.80;;;1.70;;
16593;SDS011;8410;52.532;13.336;2023-07-28T08:10:59;2.70;;;1.88;;
16593;SDS011;8410;52.532;13.336;2023-07-28T08:13:26;1.83;;;1.73;;
16593;SDS011;8410;52.532;13.336;2023-07-28T08:15:54;1.83;;;1.73;;
16593;SDS011;8410;52.532;13.336;2023-07-28T08:18:22;4.30;;;1.63;;
16593;SDS011;8410;52.532;13.336;2023-07-28T08:20:51;2.22;;;1.65;;
16593;SDS011;8410;52.532;13.336;2023-07-28T08:23:18;1.58;;;1.48;;
16593;SDS011;8410;52.532;13.336;2023-07-28T08:25:46;2.55;;;1.55;;
16593;SDS011;8410;52.532;13.336;2023-07-28T08:28:14;2.08;;;1.27;;
16593;SDS011;8410;52.532;13.336;2023-07-28T08:30:41;1.40;;;1.30;;
16593;SDS011;8410;52.532;13.336;2023-07-28T08:33:09;1.75;;;1.30;;
16593;SDS011;8410;52.532;13.336;2023-07-28T08:35:36;2.50;;;1.27;;
16593;SDS011;8410;52.532;13.336;2023-07-28T08:38:05;1.90;;;1.60;;
16593;SDS011;8410;52.532;13.336;2023-07-28T08:40:33;2.15;;;1.58;;
16593;SDS011;8410;52.532;13.336;2023-07-28T08:43:01;2.00;;;1.50;;
16593;SDS011;8410;52.532;13.336;2023-07-28T08:45:28;1.27;;;1.17;;
16593;SDS011;8410;52.532;13.336;2023-07-28T08:47:56;3.40;;;1.40;;
16593;SDS011;8410;52.532;13.336;2023-07-28T08:50:24;3.47;;;1.75;;
16593;SDS011;8410;52.532;13.336;2023-07-28T08:52:51;3.15;;;1.30;;
16593;SDS011;8410;52.532;13.336;2023-07-28T08:55:21;2.03;;;1.33;;
16593;SDS011;8410;52.532;13.336;2023-07-28T08:57:49;2.45;;;1.20;;
16593;SDS011;8410;52.532;13.336;2023-07-28T09:00:17;3.33;;;2.00;;
16593;SDS011;8410;52.532;13.336;2023-07-28T09:02:44;1.98;;;1.30;;
16593;SDS011;8410;52.532;13.336;2023-07-28T09:05:17;1.75;;;1.60;;
16593;SDS011;8410;52.532;13.336;2023-07-28T09:07:46;1.50;;;1.40;;
16593;SDS011;8410;52.532;13.336;2023-07-28T09:10:13;1.13;;;1.10;;
16593;SDS011;8410;52.532;13.336;2023-07-28T09:12:46;1.40;;;1.30;;
16593;SDS011;8410;52.532;13.336;2023-07-28T09:15:15;1.80;;;1.17;;
16593;SDS011;8410;52.532;13.336;2023-07-28T09:17:43;1.48;;;1.38;;
16593;SDS011;8410;52.532;13.336;2023-07-28T09:20:12;1.83;;;1.50;;
16593;SDS011;8410;52.532;13.336;2023-07-28T09:22:41;3.05;;;1.77;;
16593;SDS011;8410;52.532;13.336;2023-07-28T09:25:12;2.30;;;2.10;;
16593;SDS011;8410;52.532;13.336;2023-07-28T09:27:41;1.85;;;1.75;;
16593;SDS011;8410;52.532;13.336;2023-07-28T09:30:17;2.60;;;1.75;;
16593;SDS011;8410;52.532;13.336;2023-07-28T09:32:46;1.83;;;1.73;;
16593;SDS011;8410;52.532;13.336;2023-07-28T09:35:15;2.88;;;2.67;;
16593;SDS011;8410;52.532;13.336;2023-07-28T09:37:43;2.08;;;1.85;;
16593;SDS011;8410;52.532;13.336;2023-07-28T09:40:14;1.88;;;1.77;;
16593;SDS011;8410;52.532;13.336;2023-07-28T09:42:44;1.90;;;1.60;;
16593;SDS011;8410;52.532;13.336;2023-07-28T09:45:19;3.10;;;1.50;;
16593;SDS011;8410;52.532;13.336;2023-07-28T09:48:02;1.55;;;1.45;;
16593;SDS011;8410;52.532;13.336;2023-07-28T09:50:35;1.70;;;1.60;;
16593;SDS011;8410;52.532;13.336;2023-07-28T09:53:05;2.40;;;2.20;;
16593;SDS011;8410;52.532;13.336;2023-07-28T09:55:35;2.85;;;1.58;;
16593;SDS011;8410;52.532;13.336;2023-07-28T09:58:06;1.70;;;1.60;;
16593;SDS011;8410;52.532;13.336;2023-07-28T10:00:38;1.83;;;1.73;;
16593;SDS011;8410;52.532;13.336;2023-07-28T10:03:05;2.60;;;2.40;;
16593;SDS011;8410;52.532;13.336;2023-07-28T10:05:33;2.53;;;2.08;;
16593;SDS011;8410;52.532;13.336;2023-07-28T10:08:01;2.33;;;1.98;;
16593;SDS011;8410;52.532;13.336;2023-07-28T10:10:30;2.00;;;1.90;;
16593;SDS011;8410;52.532;13.336;2023-07-28T10:12:58;1.92;;;1.83;;
16593;SDS011;8410;52.532;13.336;2023-07-28T10:15:27;2.50;;;2.30;;
16593;SDS011;8410;52.532;13.336;2023-07-28T10:17:58;2.30;;;2.20;;
16593;SDS011;8410;52.532;13.336;2023-07-28T10:20:31;3.88;;;2.60;;
16593;SDS011;8410;52.532;13.336;2023-07-28T10:23:04;2.67;;;2.47;;
16593;SDS011;8410;52.532;13.336;2023-07-28T10:25:34;2.47;;;2.28;;
16593;SDS011;8410;52.532;13.336;2023-07-28T10:28:03;2.10;;;2.00;;
16593;SDS011;8410;52.532;13.336;2023-07-28T10:30:34;2.22;;;2.13;;
16593;SDS011;8410;52.532;13.336;2023-07-28T10:33:05;2.70;;;1.80;;
16593;SDS011;8410;52.532;13.336;2023-07-28T10:35:33;3.22;;;2.10;;
16593;SDS011;8410;52.532;13.336;2023-07-28T10:41:07;2.03;;;1.83;;
16593;SDS011;8410;52.532;13.336;2023-07-28T10:43:39;2.22;;;2.03;;
16593;SDS011;8410;52.532;13.336;2023-07-28T10:46:07;2.33;;;2.13;;
16593;SDS011;8410;52.532;13.336;2023-07-28T10:48:41;2.42;;;2.13;;
16593;SDS011;8410;52.532;13.336;2023-07-28T10:51:10;2.13;;;2.03;;
16593;SDS011;8410;52.532;13.336;2023-07-28T10:53:39;3.05;;;2.75;;
16593;SDS011;8410;52.532;13.336;2023-07-28T10:56:06;4.40;;;3.35;;
16593;SDS011;8410;52.532;13.336;2023-07-28T10:58:37;5.68;;;2.55;;
16593;SDS011;8410;52.532;13.336;2023-07-28T11:01:05;1.80;;;1.70;;
16593;SDS011;8410;52.532;13.336;2023-07-28T11:03:33;4.50;;;2.72;;
16593;SDS011;8410;52.532;13.336;2023-07-28T11:06:02;2.42;;;1.60;;
16593;SDS011;8410;52.532;13.336;2023-07-28T11:08:30;2.88;;;1.67;;
16593;SDS011;8410;52.532;13.336;2023-07-28T11:10:59;2.80;;;1.80;;
16593;SDS011;8410;52.532;13.336;2023-07-28T11:13:27;2.72;;;1.65;;
16593;SDS011;8410;52.532;13.336;2023-07-28T11:16:06;1.95;;;1.83;;
16593;SDS011;8410;52.532;13.336;2023-07-28T11:18:37;2.80;;;1.92;;
16593;SDS011;8410;52.532;13.336;2023-07-28T11:21:06;3.05;;;2.25;;
16593;SDS011;8410;52.532;13.336;2023-07-28T11:23:33;2.88;;;2.22;;
16593;SDS011;8410;52.532;13.336;2023-07-28T11:26:01;2.00;;;1.80;;
16593;SDS011;8410;52.532;13.336;2023-07-28T11:28:29;3.00;;;2.20;;
16593;SDS011;8410;52.532;13.336;2023-07-28T11:30:58;3.13;;;2.72;;
16593;SDS011;8410;52.532;13.336;2023-07-28T11:33:26;3.25;;;2.35;;
16593;SDS011;8410;52.532;13.336;2023-07-28T11:35:55;2.20;;;2.00;;
16593;SDS011;8410;52.532;13.336;2023-07-28T11:38:25;2.92;;;1.95;;
16593;SDS011;8410;52.532;13.336;2023-07-28T11:40:54;2.65;;;2.45;;
16593;SDS011;8410;52.532;13.336;2023-07-28T11:43:22;2.40;;;2.20;;
16593;SDS011;8410;52.532;13.336;2023-07-28T11:45:50;2.10;;;2.00;;
16593;SDS011;8410;52.532;13.336;2023-07-28T11:48:18;3.20;;;2.53;;
16593;SDS011;8410;52.532;13.336;2023-07-28T11:50:45;2.00;;;1.88;;
16593;SDS011;8410;52.532;13.336;2023-07-28T11:53:13;2.08;;;1.98;;
16593;SDS011;8410;52.532;13.336;2023-07-28T11:55:43;2.70;;;2.40;;
16593;SDS011;8410;52.532;13.336;2023-07-28T11:58:10;4.63;;;2.08;;
16593;SDS011;8410;52.532;13.336;2023-07-28T12:00:39;2.28;;;2.08;;
16593;SDS011;8410;52.532;13.336;2023-07-28T12:03:09;2.40;;;2.28;;
16593;SDS011;8410;52.532;13.336;2023-07-28T12:05:40;2.20;;;2.05;;
16593;SDS011;8410;52.532;13.336;2023-07-28T12:08:12;2.40;;;2.20;;
16593;SDS011;8410;52.532;13.336;2023-07-28T12:10:54;2.20;;;2.00;;
16593;SDS011;8410;52.532;13.336;2023-07-28T12:13:25;1.60;;;1.50;;
16593;SDS011;8410;52.532;13.336;2023-07-28T12:15:56;3.22;;;1.92;;
16593;SDS011;8410;52.532;13.336;2023-07-28T12:18:29;2.08;;;1.73;;
16593;SDS011;8410;52.532;13.336;2023-07-28T12:21:00;2.28;;;2.00;;
16593;SDS011;8410;52.532;13.336;2023-07-28T12:23:28;1.42;;;1.33;;
16593;SDS011;8410;52.532;13.336;2023-07-28T12:26:00;3.95;;;1.80;;
16593;SDS011;8410;52.532;13.336;2023-07-28T12:28:27;2.47;;;1.98;;
16593;SDS011;8410;52.532;13.336;2023-07-28T12:30:55;1.88;;;1.73;;
16593;SDS011;8410;52.532;13.336;2023-07-28T12:33:25;2.10;;;2.00;;
16593;SDS011;8410;52.532;13.336;2023-07-28T12:36:04;1.77;;;1.67;;
16593;SDS011;8410;52.532;13.336;2023-07-28T12:38:35;2.00;;;1.75;;
16593;SDS011;8410;52.532;13.336;2023-07-28T12:41:07;2.00;;;1.60;;
16593;SDS011;8410;52.532;13.336;2023-07-28T12:43:35;1.55;;;1.45;;
16593;SDS011;8410;52.532;13.336;2023-07-28T12:46:06;1.40;;;1.40;;
16593;SDS011;8410;52.532;13.336;2023-07-28T12:48:36;2.88;;;2.05;;
16593;SDS011;8410;52.532;13.336;2023-07-28T12:51:13;1.75;;;1.65;;
16593;SDS011;8410;52.532;13.336;2023-07-28T12:53:56;1.80;;;1.70;;
16593;SDS011;8410;52.532;13.336;2023-07-28T12:56:25;2.17;;;1.70;;
16593;SDS011;8410;52.532;13.336;2023-07-28T12:58:55;2.40;;;1.75;;
16593;SDS011;8410;52.532;13.336;2023-07-28T13:01:25;2.15;;;1.95;;
16593;SDS011;8410;52.532;13.336;2023-07-28T13:03:53;2.00;;;1.90;;
16593;SDS011;8410;52.532;13.336;2023-07-28T13:06:21;2.08;;;1.88;;
16593;SDS011;8410;52.532;13.336;2023-07-28T13:08:48;3.17;;;2.20;;
16593;SDS011;8410;52.532;13.336;2023-07-28T13:11:19;2.28;;;2.10;;
16593;SDS011;8410;52.532;13.336;2023-07-28T13:13:48;2.55;;;2.00;;
16593;SDS011;8410;52.532;13.336;2023-07-28T13:16:15;2.00;;;1.80;;
16593;SDS011;8410;52.532;13.336;2023-07-28T13:18:43;2.20;;;1.90;;
16593;SDS011;8410;52.532;13.336;2023-07-28T13:21:11;2.00;;;1.80;;
16593;SDS011;8410;52.532;13.336;2023-07-28T13:23:39;2.85;;;2.17;;
16593;SDS011;8410;52.532;13.336;2023-07-28T13:26:07;2.15;;;2.05;;
16593;SDS011;8410;52.532;13.336;2023-07-28T13:28:34;4.10;;;2.10;;
16593;SDS011;8410;52.532;13.336;2023-07-28T13:31:03;2.17;;;2.00;;
16593;SDS011;8410;52.532;13.336;2023-07-28T13:33:31;2.67;;;2.47;;
16593;SDS011;8410;52.532;13.336;2023-07-28T13:35:59;2.70;;;2.50;;
16593;SDS011;8410;52.532;13.336;2023-07-28T13:38:30;2.30;;;2.10;;
16593;SDS011;8410;52.532;13.336;2023-07-28T13:40:57;2.00;;;1.90;;
16593;SDS011;8410;52.532;13.336;2023-07-28T13:43:25;2.35;;;2.05;;
16593;SDS011;8410;52.532;13.336;2023-07-28T13:45:53;3.22;;;2.45;;
16593;SDS011;8410;52.532;13.336;2023-07-28T13:48:22;2.58;;;2.38;;
16593;SDS011;8410;52.532;13.336;2023-07-28T13:50:51;2.58;;;2.40;;
16593;SDS011;8410;52.532;13.336;2023-07-28T13:53:21;3.05;;;2.80;;
16593;SDS011;8410;52.532;13.336;2023-07-28T13:55:52;2.95;;;2.75;;
16593;SDS011;8410;52.532;13.336;2023-07-28T13:58:23;2.80;;;2.60;;
16593;SDS011;8410;52.532;13.336;2023-07-28T14:00:51;2.35;;;2.17;;
16593;SDS011;8410;52.532;13.336;2023-07-28T14:03:19;2.47;;;2.28;;
16593;SDS011;8410;52.532;13.336;2023-07-28T14:05:48;2.42;;;2.22;;
16593;SDS011;8410;52.532;13.336;2023-07-28T14:08:15;2.58;;;2.30;;
16593;SDS011;8410;52.532;13.336;2023-07-28T14:10:43;2.03;;;1.92;;
16593;SDS011;8410;52.532;13.336;2023-07-28T14:13:11;3.03;;;1.98;;
16593;SDS011;8410;52.532;13.336;2023-07-28T14:15:39;2.10;;;1.90;;
16593;SDS011;8410;52.532;13.336;2023-07-28T14:18:07;3.85;;;2.33;;
16593;SDS011;8410;52.532;13.336;2023-07-28T14:20:35;3.47;;;2.10;;
16593;SDS011;8410;52.532;13.336;2023-07-28T14:23:07;1.80;;;1.70;;
16593;SDS011;8410;52.532;13.336;2023-07-28T14:25:47;3.35;;;1.60;;
16593;SDS011;8410;52.532;13.336;2023-07-28T14:28:15;1.73;;;1.60;;
16593;SDS011;8410;52.532;13.336;2023-07-28T14:30:43;1.88;;;1.77;;
16593;SDS011;8410;52.532;13.336;2023-07-28T14:33:12;1.88;;;1.70;;
16593;SDS011;8410;52.532;13.336;2023-07-28T14:35:41;2.33;;;1.70;;
16593;SDS011;8410;52.532;13.336;2023-07-28T14:38:11;2.00;;;1.90;;
16593;SDS011;8410;52.532;13.336;2023-07-28T14:40:39;2.05;;;1.35;;
16593;SDS011;8410;52.532;13.336;2023-07-28T14:43:07;1.75;;;1.65;;
16593;SDS011;8410;52.532;13.336;2023-07-28T14:45:34;1.50;;;1.40;;
16593;SDS011;8410;52.532;13.336;2023-07-28T14:48:02;1.70;;;1.60;;
16593;SDS011;8410;52.532;13.336;2023-07-28T14:50:30;1.88;;;1.77;;
16593;SDS011;8410;52.532;13.336;2023-07-28T14:52:58;1.60;;;1.50;;
16593;SDS011;8410;52.532;13.336;2023-07-28T14:55:27;1.60;;;1.50;;
16593;SDS011;8410;52.532;13.336;2023-07-28T14:57:55;1.80;;;1.70;;